Time;durP1;ratioP1;P1;durP2;ratioP2;P2;SDS_P1;SDS_P2;PMS_P1;PMS_P2;Temp;Humidity;BMP_temperature;BMP_pressure;BME280_temperature;BME280_humidity;BME280_pressure;Samples;Min_cycle;Max_cycle;Signal;HPM_P1;HPM_P2
2021/09/04 00:02:23;;;;;;;27.17;14.48;;;16.00;85.40;;;;;;5010412;28;20038;-77
2021/09/04 00:04:49;;;;;;;21.92;13.35;;;16.00;85.10;;;;;;4995430;28;20475;-76
2021/09/04 00:07:15;;;;;;;23.63;13.65;;;15.90;85.40;;;;;;5010681;28;20026;-76
2021/09/04 00:09:40;;;;;;;24.33;14.38;;;15.90;85.40;;;;;;5010332;28;20474;-76
2021/09/04 00:12:06;;;;;;;24.08;13.95;;;15.90;85.60;;;;;;4993957;28;20117;-76
2021/09/04 00:14:34;;;;;;;24.83;12.43;;;15.90;86.10;;;;;;5010281;28;20030;-75
2021/09/04 00:17:00;;;;;;;24.33;12.77;;;15.90;85.90;;;;;;4993938;28;20430;-77
2021/09/04 00:19:25;;;;;;;26.40;12.90;;;15.90;85.90;;;;;;5013735;28;20045;-76
2021/09/04 00:21:52;;;;;;;23.65;13.85;;;15.90;85.80;;;;;;5029950;28;20030;-76
2021/09/04 00:24:18;;;;;;;25.83;13.23;;;15.80;86.00;;;;;;5014831;28;20034;-76
2021/09/04 00:26:44;;;;;;;28.55;13.18;;;15.80;86.50;;;;;;5013857;28;20029;-77
2021/09/04 00:29:09;;;;;;;24.00;12.65;;;15.80;86.60;;;;;;5013876;28;20022;-74
2021/09/04 00:31:35;;;;;;;23.77;12.40;;;15.70;86.20;;;;;;5013477;28;20041;-75
2021/09/04 00:34:01;;;;;;;24.58;13.20;;;15.70;86.30;;;;;;5013963;28;20038;-75
2021/09/04 00:36:26;;;;;;;27.67;14.20;;;15.70;86.60;;;;;;5013502;28;20042;-74
2021/09/04 00:38:52;;;;;;;26.35;13.75;;;15.60;87.00;;;;;;4980698;28;20029;-74
2021/09/04 00:41:21;;;;;;;24.80;13.18;;;15.60;86.80;;;;;;5014623;28;20069;-74
2021/09/04 00:43:49;;;;;;;22.02;12.90;;;15.60;87.00;;;;;;5014351;28;20437;-75
2021/09/04 00:46:15;;;;;;;22.67;12.25;;;15.60;87.00;;;;;;5014310;28;20033;-74
2021/09/04 00:48:41;;;;;;;22.80;12.88;;;15.60;87.20;;;;;;5014290;28;20381;-74
2021/09/04 00:51:06;;;;;;;22.98;12.57;;;15.60;87.30;;;;;;5014424;28;20029;-74
2021/09/04 00:53:34;;;;;;;21.25;11.43;;;15.50;87.10;;;;;;5014441;28;20117;-76
2021/09/04 00:55:59;;;;;;;22.60;12.25;;;15.50;87.30;;;;;;5029577;28;20528;-75
2021/09/04 00:58:25;;;;;;;24.50;12.88;;;15.50;87.80;;;;;;5029583;28;20033;-75
2021/09/04 01:00:53;;;;;;;18.95;11.07;;;15.40;87.60;;;;;;5014317;28;20038;-74
2021/09/04 01:03:19;;;;;;;22.40;12.18;;;15.40;87.90;;;;;;5014425;28;20441;-74
2021/09/04 01:05:47;;;;;;;20.38;11.65;;;15.40;88.10;;;;;;5014632;28;20033;-75
2021/09/04 01:08:13;;;;;;;22.08;12.25;;;15.40;88.40;;;;;;5029559;28;20029;-74
2021/09/04 01:10:39;;;;;;;25.77;12.98;;;15.40;88.20;;;;;;5014224;28;20022;-74
2021/09/04 01:13:05;;;;;;;23.67;12.48;;;15.30;88.70;;;;;;5013918;28;20029;-75
2021/09/04 01:15:31;;;;;;;24.33;12.43;;;15.30;88.90;;;;;;4996429;28;20030;-75
2021/09/04 01:18:00;;;;;;;20.77;11.23;;;15.30;88.70;;;;;;5012933;28;20367;-75
2021/09/04 01:20:26;;;;;;;21.80;12.38;;;15.30;88.70;;;;;;5013813;28;20050;-75
2021/09/04 01:22:51;;;;;;;27.42;12.38;;;15.30;88.90;;;;;;5012863;28;20037;-76
2021/09/04 01:25:24;;;;;;;26.63;13.27;;;15.20;88.90;;;;;;5012882;28;20056;-76
2021/09/04 01:27:50;;;;;;;25.45;13.38;;;15.20;89.00;;;;;;5013881;28;20030;-76
2021/09/04 01:30:16;;;;;;;24.27;13.32;;;15.20;89.20;;;;;;5004637;28;20034;-77
2021/09/04 01:32:42;;;;;;;22.38;13.13;;;15.20;89.20;;;;;;5009816;28;20144;-77
2021/09/04 01:35:10;;;;;;;22.00;12.52;;;15.10;89.30;;;;;;5013294;28;20037;-77
2021/09/04 01:37:35;;;;;;;26.33;13.02;;;15.10;89.10;;;;;;5012408;28;20398;-77
2021/09/04 01:40:03;;;;;;;22.30;14.05;;;15.10;89.20;;;;;;5013688;28;20034;-77
2021/09/04 01:42:28;;;;;;;22.95;12.80;;;15.10;89.40;;;;;;5013286;28;20037;-77
2021/09/04 01:44:54;;;;;;;25.95;13.30;;;15.00;89.40;;;;;;5028634;28;20030;-76
2021/09/04 01:47:20;;;;;;;24.63;13.52;;;15.00;89.20;;;;;;4995803;28;20032;-77
2021/09/04 01:49:46;;;;;;;23.70;13.13;;;15.00;89.30;;;;;;5028549;28;20060;-77
2021/09/04 01:52:11;;;;;;;26.08;13.18;;;15.00;89.50;;;;;;5012263;28;20080;-77
2021/09/04 01:54:37;;;;;;;28.75;14.40;;;14.90;89.60;;;;;;4999788;28;20034;-77
2021/09/04 01:57:03;;;;;;;25.00;13.27;;;14.90;89.60;;;;;;5010585;28;20041;-77
2021/09/04 01:59:28;;;;;;;22.80;11.68;;;14.90;90.00;;;;;;5032973;28;20459;-77
2021/09/04 02:01:54;;;;;;;26.85;12.35;;;14.90;90.00;;;;;;5017256;28;20038;-77
2021/09/04 02:04:20;;;;;;;24.63;13.50;;;14.90;90.00;;;;;;5016464;28;20033;-77
2021/09/04 02:06:45;;;;;;;25.17;12.85;;;14.90;90.20;;;;;;5017640;28;20034;-77
2021/09/04 02:09:11;;;;;;;21.58;12.13;;;14.90;90.00;;;;;;5000418;28;20033;-77
2021/09/04 02:11:36;;;;;;;21.25;12.30;;;14.80;90.20;;;;;;5032967;28;20377;-77
2021/09/04 02:14:02;;;;;;;22.98;11.23;;;14.80;90.00;;;;;;5017509;28;20066;-77
2021/09/04 02:16:28;;;;;;;22.27;12.65;;;14.80;90.10;;;;;;5032619;28;20547;-77
2021/09/04 02:18:53;;;;;;;30.15;13.13;;;14.80;90.40;;;;;;5017438;28;20523;-76
2021/09/04 02:21:19;;;;;;;25.00;11.90;;;14.80;90.30;;;;;;5015973;28;20490;-77
2021/09/04 02:23:46;;;;;;;23.10;12.70;;;14.70;90.20;;;;;;4983198;28;20036;-77
2021/09/04 02:26:12;;;;;;;23.35;11.85;;;14.60;90.30;;;;;;5032468;28;20030;-76
2021/09/04 02:28:37;;;;;;;22.77;11.60;;;14.70;90.40;;;;;;5032321;28;20034;-77
2021/09/04 02:31:03;;;;;;;24.00;13.63;;;14.60;90.40;;;;;;5016432;28;20029;-77
2021/09/04 02:33:28;;;;;;;23.73;13.52;;;14.60;90.60;;;;;;5016047;28;20030;-77
2021/09/04 02:35:54;;;;;;;24.75;13.00;;;14.60;90.60;;;;;;5032413;28;20351;-77
2021/09/04 02:38:20;;;;;;;23.85;13.60;;;14.60;90.80;;;;;;5013541;28;20038;-77
2021/09/04 02:40:45;;;;;;;27.65;15.45;;;14.60;90.80;;;;;;5027418;28;20062;-76
2021/09/04 02:43:11;;;;;;;26.25;13.70;;;14.60;91.00;;;;;;5012042;28;20038;-77
2021/09/04 02:45:37;;;;;;;28.50;14.80;;;14.60;91.10;;;;;;5011698;28;20487;-77
2021/09/04 02:48:03;;;;;;;24.40;15.35;;;14.70;91.10;;;;;;4996956;28;20359;-77
2021/09/04 02:50:29;;;;;;;24.60;14.32;;;14.70;91.10;;;;;;5012399;28;20038;-77
2021/09/04 02:52:55;;;;;;;24.48;14.88;;;14.70;91.10;;;;;;4996857;28;20026;-77
2021/09/04 02:55:20;;;;;;;29.15;16.17;;;14.70;91.10;;;;;;4996616;28;20113;-77
2021/09/04 02:57:46;;;;;;;29.90;15.02;;;14.70;91.00;;;;;;4996779;28;20545;-78
2021/09/04 03:00:12;;;;;;;30.17;15.63;;;14.70;91.10;;;;;;5011865;28;20039;-77
2021/09/04 03:02:38;;;;;;;26.35;15.05;;;14.70;91.10;;;;;;4996536;28;20042;-77
2021/09/04 03:05:04;;;;;;;29.48;15.93;;;14.70;91.10;;;;;;4995234;28;20084;-77
2021/09/04 03:07:30;;;;;;;29.27;15.25;;;14.70;91.10;;;;;;5011717;28;20037;-75
2021/09/04 03:09:55;;;;;;;30.45;16.48;;;14.70;91.30;;;;;;4995191;28;20033;-76
2021/09/04 03:12:21;;;;;;;37.30;19.42;;;14.70;91.30;;;;;;5011561;28;20034;-75
2021/09/04 03:14:46;;;;;;;32.65;18.25;;;14.70;91.40;;;;;;4995020;28;20438;-75
2021/09/04 03:17:12;;;;;;;29.38;16.83;;;14.70;91.50;;;;;;4996352;28;20031;-75
2021/09/04 03:19:37;;;;;;;29.60;17.20;;;14.70;91.40;;;;;;5011213;28;20070;-75
2021/09/04 03:22:03;;;;;;;30.58;16.33;;;14.70;91.50;;;;;;5026287;28;20476;-75
2021/09/04 03:24:29;;;;;;;30.42;16.13;;;14.70;91.50;;;;;;5014644;28;20030;-75
2021/09/04 03:26:54;;;;;;;30.85;16.88;;;14.70;91.50;;;;;;5011109;28;20079;-75
2021/09/04 03:29:20;;;;;;;30.75;17.63;;;14.70;91.50;;;;;;5005739;28;20433;-75
2021/09/04 03:31:46;;;;;;;30.15;16.33;;;14.70;91.70;;;;;;5014125;28;20046;-74
2021/09/04 03:34:11;;;;;;;28.60;16.23;;;14.70;91.80;;;;;;5014560;28;20064;-75
2021/09/04 03:36:37;;;;;;;27.05;16.60;;;14.60;91.80;;;;;;5030993;28;20038;-75
2021/09/04 03:39:03;;;;;;;30.63;17.83;;;14.70;91.70;;;;;;5015492;28;20038;-75
2021/09/04 03:41:28;;;;;;;30.67;17.52;;;14.70;91.80;;;;;;5015483;28;20109;-76
2021/09/04 03:43:54;;;;;;;34.20;17.73;;;14.60;91.70;;;;;;5014210;28;20116;-76
2021/09/04 03:46:20;;;;;;;27.88;15.18;;;14.60;91.80;;;;;;4997848;28;20375;-77
2021/09/04 03:48:45;;;;;;;31.35;16.52;;;14.60;91.90;;;;;;5015253;28;20417;-77
2021/09/04 03:51:11;;;;;;;27.67;17.20;;;14.70;92.00;;;;;;5014152;28;20125;-77
2021/09/04 03:53:37;;;;;;;30.70;16.65;;;14.70;92.00;;;;;;4997682;28;20034;-76
2021/09/04 03:56:02;;;;;;;27.33;16.27;;;14.70;92.10;;;;;;4998102;28;20034;-78
2021/09/04 03:58:28;;;;;;;30.23;15.95;;;14.70;92.20;;;;;;4997516;28;20038;-74
2021/09/04 04:00:54;;;;;;;29.55;17.48;;;14.70;92.20;;;;;;5014970;28;20034;-77
2021/09/04 04:03:19;;;;;;;28.65;15.90;;;14.70;92.30;;;;;;4997520;28;20548;-77
2021/09/04 04:05:45;;;;;;;26.98;15.32;;;14.70;92.10;;;;;;5014980;28;20040;-77
2021/09/04 04:08:11;;;;;;;28.05;14.98;;;14.70;92.20;;;;;;5013643;28;20026;-77
2021/09/04 04:10:36;;;;;;;28.38;15.00;;;14.70;92.20;;;;;;4997330;28;20025;-77
2021/09/04 04:13:02;;;;;;;27.88;15.80;;;14.70;92.20;;;;;;5014910;28;20030;-77
2021/09/04 04:15:27;;;;;;;26.30;16.42;;;14.70;92.30;;;;;;5013823;28;20022;-77
2021/09/04 04:17:53;;;;;;;27.95;16.80;;;14.70;92.50;;;;;;5014807;28;20061;-77
2021/09/04 04:20:19;;;;;;;27.27;15.68;;;14.70;92.50;;;;;;5015237;28;20045;-77
2021/09/04 04:22:44;;;;;;;26.40;15.02;;;14.80;92.50;;;;;;5032891;28;20029;-78
2021/09/04 04:25:10;;;;;;;29.05;15.88;;;14.80;92.30;;;;;;5034266;28;20057;-77
2021/09/04 04:27:36;;;;;;;28.67;15.60;;;14.80;92.40;;;;;;5034364;28;20516;-77
2021/09/04 04:30:03;;;;;;;28.17;15.88;;;14.80;92.40;;;;;;5032678;28;20029;-75
2021/09/04 04:32:28;;;;;;;26.20;15.82;;;14.80;92.40;;;;;;5033831;28;20021;-76
2021/09/04 04:34:54;;;;;;;26.98;16.08;;;14.80;92.30;;;;;;5032919;28;20536;-75
2021/09/04 04:37:20;;;;;;;27.58;15.38;;;14.80;92.40;;;;;;5034183;28;20112;-75
2021/09/04 04:39:45;;;;;;;26.20;16.00;;;14.80;92.50;;;;;;5016458;28;20014;-77
2021/09/04 04:42:11;;;;;;;27.27;16.10;;;14.80;92.70;;;;;;5032855;28;20480;-77
2021/09/04 04:44:36;;;;;;;24.60;14.88;;;14.80;92.70;;;;;;5016242;28;20037;-77
2021/09/04 04:47:02;;;;;;;22.60;14.88;;;14.80;92.60;;;;;;5032838;28;20091;-78
2021/09/04 04:49:28;;;;;;;26.08;15.25;;;14.80;92.60;;;;;;5016452;28;20024;-78
2021/09/04 04:51:53;;;;;;;26.35;15.70;;;14.80;92.80;;;;;;5034023;28;20413;-77
2021/09/04 04:54:19;;;;;;;29.88;16.05;;;14.80;92.80;;;;;;5032684;28;20485;-77
2021/09/04 04:56:45;;;;;;;25.52;15.35;;;14.80;92.80;;;;;;5032605;28;20036;-77
2021/09/04 04:59:10;;;;;;;27.35;16.48;;;14.80;92.90;;;;;;5032536;28;20034;-77
2021/09/04 05:01:36;;;;;;;27.02;15.65;;;14.70;93.10;;;;;;5033878;28;20056;-76
2021/09/04 05:04:01;;;;;;;26.73;15.32;;;14.70;93.00;;;;;;5028474;28;20515;-78
2021/09/04 05:06:27;;;;;;;26.98;16.15;;;14.60;92.90;;;;;;5027759;28;20029;-77
2021/09/04 05:08:52;;;;;;;26.77;14.82;;;14.70;93.10;;;;;;5012632;28;20429;-76
2021/09/04 05:11:18;;;;;;;32.72;16.60;;;14.70;93.10;;;;;;5001994;28;20057;-77
2021/09/04 05:13:44;;;;;;;28.88;16.08;;;14.70;93.20;;;;;;5016771;28;20045;-76
2021/09/04 05:16:11;;;;;;;27.80;16.77;;;14.80;93.20;;;;;;5026415;28;20030;-75
2021/09/04 05:18:36;;;;;;;28.77;16.00;;;14.70;93.10;;;;;;5011530;28;20494;-74
2021/09/04 05:21:02;;;;;;;31.77;16.00;;;14.70;93.10;;;;;;5011301;28;20038;-75
2021/09/04 05:23:30;;;;;;;29.40;16.45;;;14.70;93.20;;;;;;5013592;28;20124;-74
2021/09/04 05:25:55;;;;;;;25.75;15.40;;;14.70;93.20;;;;;;4996261;28;20026;-77
2021/09/04 05:28:21;;;;;;;26.10;15.48;;;14.70;93.20;;;;;;5028112;28;20494;-77
2021/09/04 05:30:47;;;;;;;31.20;16.17;;;14.70;93.30;;;;;;5008512;28;20591;-77
2021/09/04 05:33:12;;;;;;;29.52;16.40;;;14.70;93.30;;;;;;5009593;28;20033;-76
2021/09/04 05:35:38;;;;;;;28.13;14.85;;;14.80;93.10;;;;;;5005234;28;20034;-76
2021/09/04 05:38:03;;;;;;;24.60;14.02;;;14.70;93.10;;;;;;5028712;28;20413;-76
2021/09/04 05:40:29;;;;;;;29.30;15.85;;;14.80;93.10;;;;;;4979419;28;20022;-77
2021/09/04 05:42:54;;;;;;;24.92;14.63;;;14.80;93.10;;;;;;5013466;28;20061;-77
2021/09/04 05:45:20;;;;;;;26.40;15.77;;;14.80;93.30;;;;;;5012223;28;20036;-77
2021/09/04 05:47:46;;;;;;;27.27;14.63;;;14.80;93.00;;;;;;5013384;28;20057;-77
2021/09/04 05:50:11;;;;;;;27.63;14.85;;;14.90;93.00;;;;;;4979643;28;20022;-76
2021/09/04 05:52:37;;;;;;;27.92;15.70;;;14.90;93.00;;;;;;5012022;28;20068;-77
2021/09/04 05:55:03;;;;;;;27.77;16.08;;;14.90;93.00;;;;;;5013448;28;20502;-77
2021/09/04 05:57:29;;;;;;;29.35;14.85;;;14.90;93.00;;;;;;5028665;28;20030;-77
2021/09/04 05:59:54;;;;;;;26.73;14.73;;;14.90;92.90;;;;;;4995777;28;20530;-77
2021/09/04 06:02:20;;;;;;;29.02;14.90;;;14.90;92.90;;;;;;5028339;28;20022;-77
2021/09/04 06:04:46;;;;;;;30.52;17.10;;;14.90;92.90;;;;;;5011963;28;20033;-77
2021/09/04 06:07:11;;;;;;;28.67;15.75;;;14.90;92.90;;;;;;5028241;28;20030;-77
2021/09/04 06:09:37;;;;;;;30.13;16.60;;;15.00;93.20;;;;;;4995697;28;20057;-77
2021/09/04 06:12:02;;;;;;;29.10;16.33;;;15.00;92.90;;;;;;4995455;28;20030;-77
2021/09/04 06:14:28;;;;;;;30.23;16.35;;;15.00;92.90;;;;;;4995459;28;20080;-77
2021/09/04 06:16:55;;;;;;;29.73;17.20;;;15.00;92.90;;;;;;5013106;28;20030;-77
2021/09/04 06:19:21;;;;;;;25.83;16.48;;;15.00;92.90;;;;;;5011823;28;20104;-76
2021/09/04 06:21:47;;;;;;;28.88;16.23;;;15.00;93.10;;;;;;5013145;28;20034;-77
2021/09/04 06:24:13;;;;;;;28.23;17.05;;;15.00;92.80;;;;;;5012938;28;20374;-77
2021/09/04 06:26:38;;;;;;;36.80;16.67;;;15.10;92.80;;;;;;5013082;28;20026;-77
2021/09/04 06:29:04;;;;;;;28.88;16.40;;;15.10;92.80;;;;;;5012963;28;20030;-77
2021/09/04 06:31:30;;;;;;;24.58;16.17;;;15.00;93.00;;;;;;5011894;28;20038;-77
2021/09/04 06:33:55;;;;;;;28.13;16.10;;;15.10;92.70;;;;;;5028143;28;20048;-77
2021/09/04 06:36:21;;;;;;;28.58;14.85;;;15.20;92.70;;;;;;4995396;28;20418;-78
2021/09/04 06:38:46;;;;;;;28.35;15.93;;;15.20;92.70;;;;;;5013809;28;20026;-77
2021/09/04 06:41:12;;;;;;;29.80;15.95;;;15.20;92.60;;;;;;5016589;28;20029;-78
2021/09/04 06:43:38;;;;;;;27.25;16.33;;;15.20;92.60;;;;;;5016567;28;20057;-78
2021/09/04 06:46:04;;;;;;;28.60;17.70;;;15.20;92.50;;;;;;5016472;28;20109;-77
2021/09/04 06:48:29;;;;;;;33.33;17.88;;;15.20;92.50;;;;;;4999076;28;20037;-78
2021/09/04 06:50:55;;;;;;;31.60;18.48;;;15.30;92.40;;;;;;5016387;28;20026;-77
2021/09/04 06:53:21;;;;;;;27.42;16.23;;;15.30;92.40;;;;;;5016272;28;20417;-77
2021/09/04 06:55:46;;;;;;;30.58;18.00;;;15.30;92.30;;;;;;5015171;28;20483;-77
2021/09/04 06:58:12;;;;;;;28.55;17.00;;;15.30;92.20;;;;;;5015126;28;20089;-78
2021/09/04 07:00:38;;;;;;;32.53;17.45;;;15.40;92.20;;;;;;4982485;28;20061;-78
2021/09/04 07:03:03;;;;;;;29.90;15.52;;;15.40;92.10;;;;;;5031446;28;20064;-78
2021/09/04 07:05:29;;;;;;;30.60;17.33;;;15.40;92.00;;;;;;5016159;28;20030;-77
2021/09/04 07:07:54;;;;;;;27.42;16.42;;;15.40;92.00;;;;;;5016182;28;20022;-78
2021/09/04 07:10:20;;;;;;;28.33;16.95;;;15.50;92.00;;;;;;5016082;28;20022;-78
2021/09/04 07:12:46;;;;;;;29.80;16.85;;;15.50;92.00;;;;;;5016273;28;20057;-78
2021/09/04 07:15:11;;;;;;;30.75;17.58;;;15.60;92.20;;;;;;5014666;28;20026;-77
2021/09/04 07:17:38;;;;;;;29.73;17.98;;;15.60;91.70;;;;;;5015994;28;20030;-77
2021/09/04 07:20:05;;;;;;;30.00;16.73;;;15.70;91.50;;;;;;5015546;28;20049;-78
2021/09/04 07:22:31;;;;;;;28.25;16.90;;;15.70;91.40;;;;;;5014544;28;20030;-77
2021/09/04 07:24:56;;;;;;;26.88;16.55;;;15.70;91.30;;;;;;5015493;28;20034;-77
2021/09/04 07:27:22;;;;;;;28.13;17.13;;;15.70;91.20;;;;;;4998140;28;20037;-77
2021/09/04 07:29:48;;;;;;;23.42;15.63;;;15.70;91.10;;;;;;5014467;28;20026;-77
2021/09/04 07:32:13;;;;;;;28.33;18.02;;;15.80;91.10;;;;;;5014459;28;20036;-78
2021/09/04 07:34:39;;;;;;;25.02;16.13;;;15.80;91.00;;;;;;4980754;28;20482;-77
2021/09/04 07:37:05;;;;;;;22.77;14.98;;;15.80;90.90;;;;;;5030523;28;20382;-77
2021/09/04 07:39:30;;;;;;;20.48;13.38;;;15.90;91.20;;;;;;4997639;28;20490;-78
2021/09/04 07:41:56;;;;;;;24.77;14.23;;;15.90;90.90;;;;;;5013734;28;20073;-78
2021/09/04 07:44:21;;;;;;;24.38;14.02;;;16.00;90.90;;;;;;5014107;28;20088;-78
2021/09/04 07:46:47;;;;;;;22.45;13.70;;;16.10;90.80;;;;;;5014094;28;20490;-78
2021/09/04 07:49:13;;;;;;;20.90;14.05;;;16.10;90.70;;;;;;5013222;28;20053;-77
2021/09/04 07:51:39;;;;;;;21.90;13.70;;;16.20;90.60;;;;;;4993224;28;20891;-78
2021/09/04 07:54:05;;;;;;;22.98;13.50;;;16.30;90.40;;;;;;5016851;28;20489;-78
2021/09/04 07:56:30;;;;;;;18.45;12.68;;;16.40;90.10;;;;;;5034882;28;20065;-78
2021/09/04 07:58:56;;;;;;;20.15;13.10;;;16.40;90.00;;;;;;5017148;28;20037;-78
2021/09/04 08:01:22;;;;;;;21.52;13.10;;;16.50;89.60;;;;;;5034805;28;20040;-77
2021/09/04 08:03:47;;;;;;;21.48;14.18;;;16.50;88.90;;;;;;5033531;28;20191;-77
2021/09/04 08:06:13;;;;;;;21.38;13.98;;;16.50;88.60;;;;;;5034867;28;20029;-78
2021/09/04 08:08:40;;;;;;;20.95;13.23;;;16.60;87.90;;;;;;5033649;28;20033;-77
2021/09/04 08:11:05;;;;;;;22.92;13.02;;;16.60;87.60;;;;;;5017018;28;20030;-77
2021/09/04 08:13:31;;;;;;;21.70;12.85;;;16.60;87.10;;;;;;5017078;28;20040;-78
2021/09/04 08:15:57;;;;;;;20.48;12.43;;;16.60;87.20;;;;;;5034662;28;20033;-78
2021/09/04 08:18:22;;;;;;;25.80;12.13;;;16.70;87.00;;;;;;5016849;28;20032;-77
2021/09/04 08:20:48;;;;;;;19.38;12.02;;;16.70;86.80;;;;;;5016656;28;20081;-78
2021/09/04 08:23:14;;;;;;;19.38;11.77;;;16.70;86.60;;;;;;5034452;28;20359;-77
2021/09/04 08:25:40;;;;;;;16.90;12.02;;;16.80;86.40;;;;;;5033347;28;20037;-78
2021/09/04 08:28:07;;;;;;;17.10;10.52;;;16.80;86.10;;;;;;5034428;28;20030;-78
2021/09/04 08:30:34;;;;;;;18.80;11.98;;;16.90;86.00;;;;;;5032979;28;20014;-79
2021/09/04 08:32:59;;;;;;;20.65;10.27;;;17.00;85.70;;;;;;5028101;28;20030;-78
2021/09/04 08:35:25;;;;;;;16.92;10.90;;;17.00;85.10;;;;;;5014031;28;20451;-78
2021/09/04 08:37:52;;;;;;;15.98;10.13;;;17.10;84.70;;;;;;5011302;28;20048;-78
2021/09/04 08:40:19;;;;;;;17.17;10.75;;;17.20;84.70;;;;;;4997039;28;20080;-78
2021/09/04 08:42:45;;;;;;;17.15;10.25;;;17.30;84.30;;;;;;5014294;28;20034;-80
2021/09/04 08:45:11;;;;;;;17.50;10.55;;;17.40;84.00;;;;;;5013637;28;20193;-77
2021/09/04 08:47:37;;;;;;;14.70;9.48;;;17.50;83.80;;;;;;5014453;28;20054;-78
2021/09/04 08:50:03;;;;;;;16.63;9.50;;;17.60;83.20;;;;;;4996827;28;20022;-77
2021/09/04 08:52:29;;;;;;;14.25;9.32;;;17.60;82.40;;;;;;5029564;28;20034;-78
2021/09/04 08:54:55;;;;;;;16.77;9.30;;;17.70;82.00;;;;;;5029772;28;20025;-79
2021/09/04 08:57:21;;;;;;;16.70;9.45;;;17.80;81.80;;;;;;5013140;28;20045;-79
2021/09/04 08:59:51;;;;;;;15.32;8.95;;;17.90;81.50;;;;;;5013017;28;20026;-79
2021/09/04 09:02:19;;;;;;;13.30;8.73;;;17.90;81.30;;;;;;5014259;28;20050;-78
2021/09/04 09:04:59;;;;;;;12.48;8.35;;;18.00;80.80;;;;;;5012964;28;20371;-78
2021/09/04 09:07:46;;;;;;;14.75;9.68;;;18.20;80.50;;;;;;5012504;28;20022;-78
2021/09/04 09:10:24;;;;;;;15.32;9.75;;;18.30;80.40;;;;;;5013968;28;20091;-78
2021/09/04 09:12:51;;;;;;;12.75;7.57;;;18.50;80.10;;;;;;5014209;28;20030;-78
2021/09/04 09:15:36;;;;;;;13.32;7.93;;;18.60;80.10;;;;;;5014026;28;20025;-80
2021/09/04 09:18:06;;;;;;;15.73;9.05;;;18.70;79.70;;;;;;5014085;28;20026;-80
2021/09/04 09:20:31;;;;;;;16.98;9.27;;;18.80;79.30;;;;;;5012102;28;20041;-79
2021/09/04 09:23:04;;;;;;;13.43;8.73;;;18.80;78.80;;;;;;5013708;28;20026;-80
2021/09/04 09:25:31;;;;;;;12.75;9.10;;;18.90;78.50;;;;;;5013790;28;20045;-77
2021/09/04 09:28:01;;;;;;;15.48;9.05;;;18.90;78.00;;;;;;5012942;28;20057;-78
2021/09/04 09:30:40;;;;;;;17.80;8.82;;;18.90;77.90;;;;;;5029233;28;20033;-78
2021/09/04 09:33:07;;;;;;;14.68;7.97;;;18.90;77.80;;;;;;5012569;28;20030;-78
2021/09/04 09:35:48;;;;;;;15.07;8.65;;;18.90;77.70;;;;;;5012425;28;20021;-78
2021/09/04 09:38:17;;;;;;;15.23;8.13;;;19.00;77.80;;;;;;5013452;28;20028;-78
2021/09/04 09:40:43;;;;;;;15.02;8.75;;;19.10;77.60;;;;;;5012788;28;20113;-77
2021/09/04 09:43:15;;;;;;;13.40;8.80;;;19.10;77.40;;;;;;5012050;28;20029;-77
2021/09/04 09:45:49;;;;;;;12.48;8.98;;;19.20;77.20;;;;;;5013560;28;20033;-77
2021/09/04 09:48:21;;;;;;;14.15;8.50;;;19.30;76.80;;;;;;5013585;28;20108;-78
2021/09/04 09:50:48;;;;;;;14.88;8.05;;;19.30;76.40;;;;;;5032316;28;20132;-77
2021/09/04 09:53:14;;;;;;;12.02;8.45;;;19.30;76.20;;;;;;5015853;28;20549;-78
2021/09/04 09:55:45;;;;;;;12.95;8.82;;;19.30;75.80;;;;;;4992290;28;20031;-78
2021/09/04 09:58:12;;;;;;;12.50;8.32;;;19.40;75.70;;;;;;4999392;28;20134;-77
2021/09/04 10:00:38;;;;;;;14.90;9.38;;;19.40;75.60;;;;;;5011318;28;20030;-77
2021/09/04 10:03:07;;;;;;;14.57;9.10;;;19.50;75.50;;;;;;5028316;28;20034;-77
2021/09/04 10:05:34;;;;;;;15.43;10.50;;;19.60;75.20;;;;;;5012128;28;20022;-77
2021/09/04 10:08:00;;;;;;;14.55;9.02;;;19.70;74.70;;;;;;5012401;28;20030;-77
2021/09/04 10:10:28;;;;;;;14.40;8.38;;;19.90;74.40;;;;;;5013482;28;20057;-78
2021/09/04 10:12:54;;;;;;;13.93;7.82;;;20.10;74.10;;;;;;5012478;28;20474;-77
2021/09/04 10:15:23;;;;;;;12.43;8.40;;;20.40;73.60;;;;;;5016578;28;20034;-77
2021/09/04 10:17:52;;;;;;;12.63;7.50;;;20.80;73.20;;;;;;5036809;28;20033;-77
2021/09/04 10:20:19;;;;;;;12.02;6.70;;;21.30;72.90;;;;;;5037031;28;20061;-77
2021/09/04 10:22:45;;;;;;;9.85;6.50;;;21.70;72.80;;;;;;5035999;28;20026;-77
2021/09/04 10:25:16;;;;;;;10.65;6.68;;;22.20;72.30;;;;;;5035598;28;20018;-78
2021/09/04 10:27:43;;;;;;;14.45;7.35;;;22.80;71.40;;;;;;5035804;28;20022;-78
2021/09/04 10:30:33;;;;;;;10.30;6.32;;;23.40;70.50;;;;;;5035560;28;20061;-79
2021/09/04 10:33:00;;;;;;;11.15;6.60;;;24.30;68.40;;;;;;5036749;28;20041;-80
2021/09/04 10:35:48;;;;;;;10.38;6.45;;;24.90;68.40;;;;;;5036754;28;20109;-78
2021/09/04 10:38:20;;;;;;;11.82;6.50;;;25.60;65.60;;;;;;5035330;28;20022;-81
2021/09/04 10:41:04;;;;;;;9.98;6.88;;;26.20;64.70;;;;;;5025479;28;20517;-79
2021/09/04 10:43:31;;;;;;;8.93;6.90;;;26.80;63.20;;;;;;5016882;28;20040;-81
2021/09/04 10:45:59;;;;;;;9.65;6.45;;;27.50;61.70;;;;;;4999768;28;20028;-77
2021/09/04 10:48:36;;;;;;;7.18;5.40;;;28.10;59.50;;;;;;5021744;28;20061;-78
2021/09/04 10:51:04;;;;;;;8.93;5.82;;;28.70;56.70;;;;;;5016730;28;20524;-78
2021/09/04 10:53:50;;;;;;;8.65;6.20;;;29.20;56.50;;;;;;5015303;28;20033;-78
2021/09/04 10:56:21;;;;;;;10.63;6.10;;;29.70;53.60;;;;;;5015250;28;20030;-75
2021/09/04 10:58:48;;;;;;;8.73;6.43;;;30.30;52.80;;;;;;5015421;28;20069;-75
2021/09/04 11:01:38;;;;;;;9.90;6.57;;;30.60;51.80;;;;;;5015324;28;20080;-75
2021/09/04 11:04:05;;;;;;;8.85;6.43;;;31.20;50.20;;;;;;5016092;28;20045;-75
2021/09/04 11:06:31;;;;;;;8.75;5.80;;;31.60;49.50;;;;;;5015301;28;20027;-76
2021/09/04 11:08:57;;;;;;;8.40;5.53;;;31.80;48.30;;;;;;5008897;28;20398;-76
2021/09/04 11:11:35;;;;;;;10.23;6.47;;;31.90;47.60;;;;;;5031485;28;20041;-77
2021/09/04 11:14:18;;;;;;;8.13;5.18;;;31.80;46.50;;;;;;5016475;28;20495;-76
2021/09/04 11:16:47;;;;;;;7.30;5.10;;;31.60;46.00;;;;;;5016262;28;20026;-77
2021/09/04 11:19:32;;;;;;;7.95;5.43;;;31.50;46.00;;;;;;5015887;28;20292;-77
2021/09/04 11:22:07;;;;;;;8.40;5.22;;;31.20;45.40;;;;;;5014822;28;20026;-77
2021/09/04 11:24:36;;;;;;;8.38;5.53;;;31.00;45.50;;;;;;5015647;28;20032;-78
2021/09/04 11:27:19;;;;;;;7.90;5.22;;;30.90;45.50;;;;;;5014229;28;20018;-77
2021/09/04 11:29:52;;;;;;;7.63;4.88;;;30.80;45.10;;;;;;5014304;28;20033;-76
2021/09/04 11:32:21;;;;;;;;;;;30.80;45.30;;;;;;5018069;28;20034;-75
2021/09/04 11:34:52;;;;;;;8.10;5.15;;;30.70;45.50;;;;;;5015857;28;19909;-76
2021/09/04 11:37:25;;;;;;;7.05;4.38;;;30.60;45.50;;;;;;5014985;28;20026;-76
2021/09/04 11:39:54;;;;;;;;;;;30.70;45.20;;;;;;5016304;28;20030;-76
2021/09/04 11:42:22;;;;;;;7.40;4.88;;;30.70;45.30;;;;;;5015855;28;19905;-76
2021/09/04 11:44:53;;;;;;;9.02;5.22;;;30.70;45.50;;;;;;5015880;28;20343;-77
2021/09/04 11:47:21;;;;;;;8.30;4.95;;;30.70;45.10;;;;;;5015848;28;20458;-77
2021/09/04 11:49:59;;;;;;;6.10;4.22;;;30.80;45.00;;;;;;5015468;28;20026;-77
2021/09/04 11:52:26;;;;;;;7.70;5.20;;;30.80;44.80;;;;;;5011972;28;20430;-77
2021/09/04 11:55:17;;;;;;;9.90;5.50;;;30.90;44.60;;;;;;5015122;28;20128;-77
2021/09/04 11:57:52;;;;;;;9.48;5.47;;;31.00;44.30;;;;;;5012540;28;20053;-77
2021/09/04 12:00:30;;;;;;;8.30;5.32;;;31.10;44.30;;;;;;5014833;28;20036;-77
2021/09/04 12:03:00;;;;;;;8.23;5.82;;;31.20;44.30;;;;;;5015151;28;20026;-76
2021/09/04 12:05:31;;;;;;;9.27;5.78;;;31.30;44.00;;;;;;5015309;28;20036;-78
2021/09/04 12:08:06;;;;;;;8.65;5.13;;;31.40;43.80;;;;;;4995646;28;20097;-77
2021/09/04 12:10:40;;;;;;;6.68;5.00;;;31.40;43.50;;;;;;4994351;28;20025;-78
2021/09/04 12:13:10;;;;;;;8.75;5.50;;;31.50;43.60;;;;;;5011179;28;20037;-77
2021/09/04 12:15:37;;;;;;;8.98;5.60;;;31.60;43.70;;;;;;5014012;28;20040;-77
2021/09/04 12:18:06;;;;;;;8.70;5.03;;;31.60;43.60;;;;;;5014549;28;20117;-76
2021/09/04 12:20:34;;;;;;;8.63;5.22;;;31.60;43.50;;;;;;5027834;28;20570;-77
2021/09/04 12:23:23;;;;;;;8.40;5.82;;;31.80;43.40;;;;;;5029739;28;20124;-77
2021/09/04 12:25:51;;;;;;;8.98;5.80;;;31.90;42.90;;;;;;5014747;28;20034;-77
2021/09/04 12:28:26;;;;;;;9.80;5.47;;;32.00;43.10;;;;;;5014420;28;20463;-76
2021/09/04 12:30:57;;;;;;;9.57;5.57;;;32.20;43.00;;;;;;5029555;28;20036;-77
2021/09/04 12:33:22;;;;;;;10.40;5.68;;;32.20;42.80;;;;;;5014789;28;20030;-76